createdAt,value
2022-09-20T00:01:48.520Z,20.50
2022-09-20T00:04:15.523Z,20.50
2022-09-20T00:06:42.570Z,20.50
2022-09-20T00:09:09.628Z,20.50
2022-09-20T00:11:36.971Z,20.40
2022-09-20T00:14:05.964Z,20.40
2022-09-20T00:16:34.652Z,20.40
2022-09-20T00:19:04.055Z,20.40
2022-09-20T00:21:32.762Z,20.40
2022-09-20T00:23:59.894Z,20.40
2022-09-20T00:26:27.582Z,20.40
2022-09-20T00:28:55.074Z,20.40
2022-09-20T00:31:22.219Z,20.40
2022-09-20T00:34:08.075Z,20.40
2022-09-20T00:36:35.303Z,20.40
2022-09-20T00:39:03.074Z,20.40
2022-09-20T00:41:30.688Z,20.40
2022-09-20T00:43:58.198Z,20.40
2022-09-20T00:46:33.016Z,20.40
2022-09-20T00:49:03.515Z,20.40
2022-09-20T00:51:34.111Z,20.40
2022-09-20T00:54:03.002Z,20.40
2022-09-20T00:56:32.361Z,20.40
2022-09-20T00:59:02.476Z,20.40
2022-09-20T01:01:29.838Z,20.30
2022-09-20T01:03:57.290Z,20.40
2022-09-20T01:06:24.447Z,20.40
2022-09-20T01:08:54.459Z,20.30
2022-09-20T01:11:21.580Z,20.30
2022-09-20T01:13:48.578Z,20.30
2022-09-20T01:16:16.097Z,20.40
2022-09-20T01:18:43.870Z,20.30
2022-09-20T01:21:11.130Z,20.30
2022-09-20T01:23:53.435Z,20.30
2022-09-20T01:26:43.435Z,20.30
2022-09-20T01:29:23.082Z,20.30
2022-09-20T01:31:52.621Z,20.30
2022-09-20T01:34:40.836Z,20.30
2022-09-20T01:37:07.956Z,20.30
2022-09-20T01:39:52.297Z,20.30
2022-09-20T01:42:22.464Z,20.20
2022-09-20T01:44:49.589Z,20.20
2022-09-20T01:47:28.930Z,20.30
2022-09-20T01:50:07.088Z,20.20
2022-09-20T01:52:40.312Z,20.20
2022-09-20T01:55:26.832Z,20.20
2022-09-20T01:57:53.871Z,20.20
2022-09-20T02:00:23.573Z,20.20
2022-09-20T02:02:50.709Z,20.20
2022-09-20T02:05:17.752Z,20.20
2022-09-20T02:07:58.864Z,20.20
2022-09-20T02:10:40.999Z,20.20
2022-09-20T02:13:18.160Z,20.20
2022-09-20T02:16:17.708Z,20.20
2022-09-20T02:19:03.457Z,20.20
2022-09-20T02:21:39.014Z,20.20
2022-09-20T02:24:25.085Z,20.20
2022-09-20T02:27:07.747Z,20.20
2022-09-20T02:29:53.394Z,20.20
2022-09-20T02:32:26.619Z,20.10
2022-09-20T02:35:18.733Z,20.20
2022-09-20T02:37:54.647Z,20.20
2022-09-20T02:40:27.378Z,20.20
2022-09-20T02:42:57.443Z,20.20
2022-09-20T02:45:46.443Z,20.10
2022-09-20T02:48:15.308Z,20.10
2022-09-20T02:50:47.146Z,20.10
2022-09-20T02:53:23.678Z,20.10
2022-09-20T02:55:50.651Z,20.10
2022-09-20T02:58:20.668Z,20.10
2022-09-20T03:01:02.915Z,20.10
2022-09-20T03:03:36.700Z,20.10
2022-09-20T03:06:19.802Z,20.10
2022-09-20T03:09:05.406Z,20.10
2022-09-20T03:11:50.915Z,20.10
2022-09-20T03:14:27.504Z,20.10
2022-09-20T03:17:03.840Z,20.10
2022-09-20T03:19:49.887Z,20.10
2022-09-20T03:22:17.553Z,20.10
2022-09-20T03:24:44.630Z,20.10
2022-09-20T03:27:17.618Z,20.00
2022-09-20T03:30:03.494Z,20.00
2022-09-20T03:32:42.958Z,20.00
2022-09-20T03:35:25.048Z,20.00
2022-09-20T03:38:08.678Z,20.00
2022-09-20T03:40:35.787Z,20.00
2022-09-20T03:43:07.692Z,20.00
2022-09-20T03:45:41.456Z,20.00
2022-09-20T03:48:21.760Z,20.00
2022-09-20T03:50:57.915Z,20.00
2022-09-20T03:53:48.104Z,20.00
2022-09-20T03:56:30.656Z,20.10
2022-09-20T03:59:00.436Z,20.40
2022-09-20T04:01:33.781Z,20.70
2022-09-20T04:04:08.349Z,20.90
2022-09-20T04:06:54.121Z,21.00
2022-09-20T04:09:27.395Z,21.30
2022-09-20T04:12:21.390Z,21.50
2022-09-20T04:15:06.849Z,21.60
2022-09-20T04:17:39.862Z,21.90
2022-09-20T04:20:16.151Z,22.00
2022-09-20T04:22:44.696Z,22.20
2022-09-20T04:25:17.181Z,22.30
2022-09-20T04:27:50.066Z,22.40
2022-09-20T04:30:18.968Z,22.40
2022-09-20T04:33:07.262Z,22.50
2022-09-20T04:36:02.357Z,22.50
2022-09-20T04:38:29.938Z,22.60
2022-09-20T04:41:08.152Z,22.60
2022-09-20T04:43:53.870Z,22.50
2022-09-20T04:46:45.745Z,22.50
2022-09-20T04:49:42.820Z,22.50
2022-09-20T04:52:12.860Z,22.50
2022-09-20T04:54:45.983Z,22.50
2022-09-20T04:57:22.158Z,22.40
2022-09-20T04:59:55.489Z,22.40
2022-09-20T05:02:22.563Z,22.30
2022-09-20T05:04:55.608Z,22.40
2022-09-20T05:07:41.529Z,22.30
2022-09-20T05:10:08.567Z,22.30
2022-09-20T05:12:36.000Z,22.20
2022-09-20T05:15:08.616Z,22.20
2022-09-20T05:17:44.778Z,22.20
2022-09-20T05:20:30.452Z,22.20
2022-09-20T05:23:02.588Z,22.20
2022-09-20T05:25:29.687Z,22.10
2022-09-20T05:28:15.592Z,22.10
2022-09-20T05:31:01.992Z,22.00
2022-09-20T05:33:49.095Z,22.10
2022-09-20T05:36:39.432Z,22.10
2022-09-20T05:39:29.685Z,22.00
2022-09-20T05:42:03.403Z,21.60
2022-09-20T05:44:45.466Z,20.50
2022-09-20T05:47:15.593Z,20.00
2022-09-20T05:50:03.534Z,20.40
2022-09-20T05:52:43.145Z,20.80
2022-09-20T05:55:16.458Z,21.10
2022-09-20T05:58:00.631Z,21.30
2022-09-20T06:00:32.487Z,21.40
2022-09-20T06:03:05.503Z,21.40
2022-09-20T06:05:39.129Z,21.30
2022-09-20T06:08:21.541Z,21.20
2022-09-20T06:10:48.928Z,21.20
2022-09-20T06:13:15.931Z,21.20
2022-09-20T06:15:44.786Z,21.20
2022-09-20T06:18:15.042Z,21.30
2022-09-20T06:20:45.142Z,21.40
2022-09-20T06:23:12.271Z,21.40
2022-09-20T06:25:42.908Z,21.50
2022-09-20T06:28:12.955Z,21.50
2022-09-20T06:30:43.404Z,21.50
2022-09-20T06:33:14.934Z,21.60
2022-09-20T06:36:20.773Z,21.60
2022-09-20T06:39:25.419Z,21.60
2022-09-20T06:41:52.771Z,21.70
2022-09-20T06:44:19.890Z,21.70
2022-09-20T06:46:47.661Z,21.80
2022-09-20T06:49:14.779Z,21.70
2022-09-20T06:51:43.431Z,21.70
2022-09-20T06:54:14.174Z,21.70
2022-09-20T06:56:41.325Z,21.70
2022-09-20T06:59:10.191Z,21.80
2022-09-20T07:01:38.320Z,21.70
2022-09-20T07:04:09.627Z,21.70
2022-09-20T07:06:36.776Z,21.70
2022-09-20T07:09:04.277Z,21.70
2022-09-20T07:11:34.827Z,21.70
2022-09-20T07:14:01.996Z,21.70
2022-09-20T07:16:29.194Z,21.70
2022-09-20T07:18:56.916Z,21.70
2022-09-20T07:21:24.162Z,21.60
2022-09-20T07:23:51.407Z,21.70
2022-09-20T07:26:18.489Z,21.60
2022-09-20T07:28:45.663Z,21.60
2022-09-20T07:31:12.933Z,21.60
2022-09-20T07:33:40.083Z,21.60
2022-09-20T07:36:07.393Z,21.60
2022-09-20T07:38:34.595Z,21.60
2022-09-20T07:41:02.292Z,21.60
2022-09-20T07:43:30.163Z,21.60
2022-09-20T07:45:57.941Z,21.60
2022-09-20T07:48:26.744Z,21.60
2022-09-20T07:50:54.374Z,21.50
2022-09-20T07:53:21.428Z,21.60
2022-09-20T07:55:59.132Z,21.60
2022-09-20T07:58:26.508Z,21.50
2022-09-20T08:00:58.011Z,21.50
2022-09-20T08:03:26.401Z,21.50
2022-09-20T08:05:58.994Z,21.50
2022-09-20T08:08:26.164Z,21.40
2022-09-20T08:10:55.746Z,21.40
2022-09-20T08:16:11.060Z,21.40
2022-09-20T08:18:38.244Z,21.40
2022-09-20T08:21:06.422Z,21.40
2022-09-20T08:23:34.668Z,21.40
2022-09-20T08:26:02.669Z,21.30
2022-09-20T08:28:30.417Z,21.40
2022-09-20T08:31:04.424Z,21.40
2022-09-20T08:33:32.262Z,21.40
2022-09-20T08:36:00.092Z,21.40
2022-09-20T08:41:26.457Z,21.50
2022-09-20T08:43:58.029Z,21.60
2022-09-20T08:46:30.047Z,21.60
2022-09-20T08:48:57.616Z,21.70
2022-09-20T08:51:29.274Z,21.70
2022-09-20T08:53:57.980Z,21.70
2022-09-20T08:56:28.032Z,21.70
2022-09-20T08:58:56.552Z,21.80
2022-09-20T09:01:25.178Z,21.70
2022-09-20T09:03:53.383Z,21.80
2022-09-20T09:06:22.098Z,21.70
2022-09-20T09:08:53.321Z,21.70
2022-09-20T09:11:21.123Z,21.70
2022-09-20T09:13:48.429Z,21.70
2022-09-20T09:16:23.091Z,21.70
2022-09-20T09:18:51.944Z,21.60
2022-09-20T09:21:20.598Z,21.70
2022-09-20T09:23:50.856Z,21.60
2022-09-20T09:26:21.013Z,21.60
2022-09-20T09:29:07.477Z,21.60
2022-09-20T09:31:34.910Z,21.60
2022-09-20T09:34:03.053Z,21.60
2022-09-20T09:36:30.231Z,21.60
2022-09-20T09:39:20.369Z,21.50
2022-09-20T09:41:47.834Z,21.50
2022-09-20T09:44:18.206Z,21.50
2022-09-20T09:46:45.370Z,21.50
2022-09-20T09:49:15.481Z,21.50
2022-09-20T09:52:01.586Z,21.40
2022-09-20T09:54:36.220Z,21.40
2022-09-20T09:57:22.133Z,21.40
2022-09-20T10:00:04.498Z,21.40
2022-09-20T10:02:42.681Z,21.40
2022-09-20T10:05:12.804Z,21.40
2022-09-20T10:07:45.277Z,21.40
2022-09-20T10:10:21.953Z,21.40
2022-09-20T10:12:48.985Z,21.40
2022-09-20T10:15:25.249Z,21.40
2022-09-20T10:18:00.904Z,21.40
2022-09-20T10:20:34.865Z,21.40
2022-09-20T10:26:23.914Z,21.40
2022-09-20T10:28:57.459Z,21.40
2022-09-20T10:31:35.662Z,21.40
2022-09-20T10:34:06.035Z,21.40
2022-09-20T10:36:53.808Z,21.50
2022-09-20T10:39:34.062Z,21.40
2022-09-20T10:42:22.924Z,21.50
2022-09-20T10:44:57.021Z,21.50
2022-09-20T10:47:33.231Z,21.50
2022-09-20T10:50:07.613Z,21.50
2022-09-20T10:53:07.433Z,21.50
2022-09-20T10:55:52.021Z,21.50
2022-09-20T10:58:31.322Z,21.50
2022-09-20T11:01:06.976Z,21.50
2022-09-20T11:03:41.222Z,21.60
2022-09-20T11:06:25.949Z,21.60
2022-09-20T11:08:56.337Z,21.60
2022-09-20T11:11:39.976Z,21.60
2022-09-20T11:14:12.641Z,21.60
2022-09-20T11:16:46.876Z,21.60
2022-09-20T11:19:31.549Z,21.60
2022-09-20T11:22:13.177Z,21.60
2022-09-20T11:24:45.221Z,21.60
2022-09-20T11:27:18.633Z,21.60
2022-09-20T11:29:51.932Z,21.50
2022-09-20T11:32:45.052Z,21.50
2022-09-20T11:35:12.216Z,21.60
2022-09-20T11:37:40.805Z,21.60
2022-09-20T11:40:18.070Z,21.60
2022-09-20T11:42:46.012Z,21.60
2022-09-20T11:45:13.313Z,21.60
2022-09-20T11:47:56.086Z,21.60
2022-09-20T11:50:38.468Z,21.60
2022-09-20T11:53:24.645Z,21.60
2022-09-20T11:56:00.861Z,21.50
2022-09-20T11:58:28.185Z,21.50
2022-09-20T12:00:57.049Z,21.50
2022-09-20T12:03:27.852Z,21.60
2022-09-20T12:05:59.031Z,21.50
2022-09-20T12:08:28.023Z,21.50
2022-09-20T12:10:56.844Z,21.50
2022-09-20T12:13:25.155Z,21.50
2022-09-20T12:16:03.604Z,21.60
2022-09-20T12:18:36.386Z,21.50
2022-09-20T12:21:03.615Z,21.50
2022-09-20T12:23:43.340Z,21.50
2022-09-20T12:26:13.202Z,21.50
2022-09-20T12:28:41.633Z,21.50
2022-09-20T12:31:32.046Z,21.50
2022-09-20T12:34:15.435Z,21.50
2022-09-20T12:36:44.254Z,21.50
2022-09-20T12:39:11.440Z,21.50
2022-09-20T12:41:46.507Z,21.50
2022-09-20T12:44:22.919Z,21.60
2022-09-20T12:46:58.422Z,21.70
2022-09-20T12:49:47.791Z,21.80
2022-09-20T12:52:42.841Z,21.80
2022-09-20T12:55:11.977Z,21.80
2022-09-20T12:57:40.973Z,21.80
2022-09-20T13:00:27.783Z,21.80
2022-09-20T13:02:59.034Z,21.80
2022-09-20T13:05:32.164Z,21.80
2022-09-20T13:08:02.993Z,21.80
2022-09-20T13:10:31.147Z,21.90
2022-09-20T13:13:03.309Z,21.90
2022-09-20T13:15:31.790Z,21.90
2022-09-20T13:18:00.918Z,21.90
2022-09-20T13:20:31.577Z,21.90
2022-09-20T13:23:00.476Z,21.90
2022-09-20T13:25:28.554Z,21.80
2022-09-20T13:28:01.071Z,21.80
2022-09-20T13:30:35.238Z,21.80
2022-09-20T13:33:22.362Z,21.80
2022-09-20T13:35:58.739Z,21.80
2022-09-20T13:38:29.890Z,21.70
2022-09-20T13:41:09.235Z,21.70
2022-09-20T13:43:37.821Z,21.60
2022-09-20T13:46:12.584Z,21.60
2022-09-20T13:48:40.299Z,21.60
2022-09-20T13:51:17.921Z,21.50
2022-09-20T13:53:46.708Z,21.50
2022-09-20T13:56:24.377Z,21.50
2022-09-20T13:58:51.576Z,21.50
2022-09-20T14:01:24.015Z,21.60
2022-09-20T14:07:06.461Z,21.70
2022-09-20T14:09:35.672Z,21.60
2022-09-20T14:12:04.532Z,21.50
2022-09-20T14:14:32.280Z,21.50
2022-09-20T14:17:00.944Z,21.50
2022-09-20T14:19:32.982Z,21.50
2022-09-20T14:22:03.433Z,21.50
2022-09-20T14:24:35.476Z,21.40
2022-09-20T14:27:02.753Z,21.40
2022-09-20T14:29:45.005Z,21.50
2022-09-20T14:32:18.248Z,21.40
2022-09-20T14:35:04.985Z,21.40
2022-09-20T14:37:41.959Z,21.40
2022-09-20T14:40:23.173Z,21.40
2022-09-20T14:42:54.968Z,21.50
2022-09-20T14:45:27.360Z,21.50
2022-09-20T14:48:08.059Z,21.50
2022-09-20T14:50:44.689Z,21.50
2022-09-20T14:53:12.234Z,21.50
2022-09-20T14:55:40.320Z,21.60
2022-09-20T14:58:10.076Z,21.60
2022-09-20T15:00:50.752Z,21.60
2022-09-20T15:03:23.196Z,21.70
2022-09-20T15:05:50.928Z,21.70
2022-09-20T15:08:19.743Z,21.70
2022-09-20T15:10:47.765Z,21.70
2022-09-20T15:13:15.181Z,21.70
2022-09-20T15:15:44.265Z,21.70
2022-09-20T15:18:21.012Z,21.70
2022-09-20T15:20:51.854Z,21.70
2022-09-20T15:23:19.376Z,21.70
2022-09-20T15:25:49.682Z,21.70
2022-09-20T15:28:17.501Z,21.70
2022-09-20T15:30:45.024Z,21.70
2022-09-20T15:33:12.518Z,21.70
2022-09-20T15:35:40.637Z,21.70
2022-09-20T15:38:11.125Z,21.80
2022-09-20T15:40:39.239Z,21.70
2022-09-20T15:43:09.495Z,21.70
2022-09-20T15:45:49.470Z,21.70
2022-09-20T15:48:21.351Z,21.70
2022-09-20T15:51:01.828Z,21.70
2022-09-20T15:53:31.691Z,21.70
2022-09-20T15:56:02.546Z,21.70
2022-09-20T15:58:35.477Z,21.60
2022-09-20T16:01:07.219Z,21.60
2022-09-20T16:03:35.454Z,21.60
2022-09-20T16:06:04.841Z,21.60
2022-09-20T16:08:36.335Z,21.60
2022-09-20T16:11:04.435Z,21.60
2022-09-20T16:13:31.945Z,21.60
2022-09-20T16:16:02.395Z,21.60
2022-09-20T16:18:48.200Z,21.60
2022-09-20T16:21:16.503Z,21.60
2022-09-20T16:23:53.936Z,21.60
2022-09-20T16:26:22.495Z,21.60
2022-09-20T16:28:49.936Z,21.60
2022-09-20T16:31:36.786Z,21.60
2022-09-20T16:34:05.379Z,21.50
2022-09-20T16:36:32.837Z,21.50
2022-09-20T16:39:01.346Z,21.50
2022-09-20T16:41:28.984Z,21.60
2022-09-20T16:43:56.322Z,21.60
2022-09-20T16:46:25.120Z,21.60
2022-09-20T16:48:54.782Z,21.70
2022-09-20T16:51:25.609Z,21.80
2022-09-20T16:53:56.098Z,21.80
2022-09-20T16:56:24.682Z,21.90
2022-09-20T16:58:52.473Z,21.90
2022-09-20T17:01:19.847Z,21.90
2022-09-20T17:03:47.656Z,21.90
2022-09-20T17:06:15.959Z,21.90
2022-09-20T17:08:44.883Z,21.90
2022-09-20T17:11:16.786Z,21.90
2022-09-20T17:13:45.133Z,21.90
2022-09-20T17:16:14.275Z,21.90
2022-09-20T17:18:42.944Z,21.90
2022-09-20T17:21:13.683Z,22.00
2022-09-20T17:23:41.889Z,21.90
2022-09-20T17:26:09.465Z,21.90
2022-09-20T17:28:37.741Z,22.00
2022-09-20T17:31:05.916Z,21.90
2022-09-20T17:33:33.588Z,21.90
2022-09-20T17:36:01.757Z,21.90
2022-09-20T17:38:31.003Z,21.80
2022-09-20T17:40:58.730Z,21.80
2022-09-20T17:43:27.240Z,21.80
2022-09-20T17:45:55.445Z,21.80
2022-09-20T17:48:25.450Z,21.80
2022-09-20T17:50:56.271Z,21.80
2022-09-20T17:53:23.564Z,21.80
2022-09-20T17:55:57.019Z,21.80
2022-09-20T17:58:25.155Z,21.70
2022-09-20T18:00:56.479Z,21.70
2022-09-20T18:03:24.039Z,21.80
2022-09-20T18:05:51.973Z,21.70
2022-09-20T18:08:19.114Z,21.70
2022-09-20T18:10:55.994Z,21.70
2022-09-20T18:13:23.208Z,21.60
2022-09-20T18:15:50.498Z,21.70
2022-09-20T18:18:18.162Z,21.70
2022-09-20T18:20:45.371Z,21.70
2022-09-20T18:23:12.592Z,21.70
2022-09-20T18:25:58.573Z,21.70
2022-09-20T18:28:25.769Z,21.70
2022-09-20T18:31:02.839Z,21.70
2022-09-20T18:33:30.857Z,21.70
2022-09-20T18:36:02.124Z,21.80
2022-09-20T18:38:29.818Z,21.80
2022-09-20T18:41:00.209Z,21.80
2022-09-20T18:43:28.446Z,21.90
2022-09-20T18:45:57.565Z,21.90
2022-09-20T18:48:25.807Z,21.90
2022-09-20T18:50:59.038Z,21.70
2022-09-20T18:53:30.732Z,21.10
2022-09-20T18:56:07.443Z,20.70
2022-09-20T18:58:35.850Z,20.80
2022-09-20T19:01:06.127Z,21.10
2022-09-20T19:03:49.610Z,21.30
2022-09-20T19:06:18.193Z,21.40
2022-09-20T19:08:50.873Z,21.60
2022-09-20T19:11:26.405Z,21.70
2022-09-20T19:14:07.846Z,21.70
2022-09-20T19:16:37.025Z,21.80
2022-09-20T19:19:04.289Z,21.80
2022-09-20T19:21:39.379Z,21.80
2022-09-20T19:24:21.835Z,21.80
2022-09-20T19:26:49.143Z,21.80
2022-09-20T19:29:24.840Z,21.80
2022-09-20T19:31:55.495Z,21.80
2022-09-20T19:34:24.189Z,21.80
2022-09-20T19:36:54.580Z,21.80
2022-09-20T19:39:24.710Z,21.80
2022-09-20T19:42:02.293Z,21.80
2022-09-20T19:44:29.980Z,21.70
2022-09-20T19:47:19.908Z,21.70
2022-09-20T19:49:55.191Z,21.70
2022-09-20T19:52:23.404Z,21.70
2022-09-20T19:54:51.326Z,21.70
2022-09-20T19:57:20.219Z,21.60
2022-09-20T19:59:47.889Z,21.60
2022-09-20T20:02:15.387Z,21.60
2022-09-20T20:04:43.552Z,21.60
2022-09-20T20:07:36.689Z,21.60
2022-09-20T20:10:06.667Z,21.50
2022-09-20T20:12:44.797Z,21.60
2022-09-20T20:15:18.204Z,21.50
2022-09-20T20:17:51.431Z,21.50
2022-09-20T20:20:24.139Z,21.50
2022-09-20T20:23:10.313Z,21.50
2022-09-20T20:25:50.144Z,21.40
2022-09-20T20:28:17.405Z,21.40
2022-09-20T20:30:44.617Z,21.40
2022-09-20T20:33:19.313Z,21.40
2022-09-20T20:35:56.374Z,21.40
2022-09-20T20:38:25.944Z,21.30
2022-09-20T20:41:00.833Z,21.40
2022-09-20T20:43:30.404Z,21.30
2022-09-20T20:45:57.721Z,21.30
2022-09-20T20:48:24.815Z,21.30
2022-09-20T20:51:00.878Z,21.30
2022-09-20T20:53:32.275Z,21.30
2022-09-20T20:56:03.288Z,21.20
2022-09-20T20:58:33.968Z,21.20
2022-09-20T21:01:24.112Z,21.20
2022-09-20T21:03:52.493Z,21.20
2022-09-20T21:06:20.297Z,21.20
2022-09-20T21:08:49.569Z,21.20
2022-09-20T21:11:23.399Z,21.10
2022-09-20T21:13:51.103Z,21.10
2022-09-20T21:16:19.060Z,21.20
2022-09-20T21:18:47.533Z,21.10
2022-09-20T21:21:14.659Z,21.10
2022-09-20T21:23:42.184Z,21.10
2022-09-20T21:26:10.847Z,21.10
2022-09-20T21:28:39.485Z,21.10
2022-09-20T21:31:07.342Z,21.10
2022-09-20T21:33:35.427Z,21.10
2022-09-20T21:36:03.232Z,21.10
2022-09-20T21:38:33.244Z,21.10
2022-09-20T21:41:04.816Z,21.10
2022-09-20T21:43:32.016Z,21.00
2022-09-20T21:45:59.186Z,21.10
2022-09-20T21:48:26.850Z,21.00
2022-09-20T21:51:00.201Z,21.00
2022-09-20T21:53:27.538Z,21.00
2022-09-20T21:55:58.470Z,21.00
2022-09-20T21:58:26.181Z,21.00
2022-09-20T22:00:57.171Z,21.00
2022-09-20T22:03:24.592Z,21.00
2022-09-20T22:05:51.687Z,21.00
2022-09-20T22:08:18.828Z,21.00
2022-09-20T22:10:54.616Z,21.00
2022-09-20T22:13:21.748Z,21.00
2022-09-20T22:15:49.218Z,21.00
2022-09-20T22:18:16.382Z,21.00
2022-09-20T22:20:43.528Z,20.90
2022-09-20T22:23:11.467Z,20.90
2022-09-20T22:25:38.549Z,20.90
2022-09-20T22:28:05.654Z,20.90
2022-09-20T22:30:33.277Z,20.90
2022-09-20T22:33:00.680Z,20.90
2022-09-20T22:35:27.756Z,20.90
2022-09-20T22:37:55.836Z,20.80
2022-09-20T22:40:22.960Z,20.80
2022-09-20T22:42:50.029Z,20.90
2022-09-20T22:45:17.149Z,20.90
2022-09-20T22:47:44.592Z,20.80
2022-09-20T22:50:11.684Z,20.80
2022-09-20T22:52:39.264Z,20.80
2022-09-20T22:55:06.656Z,20.80
2022-09-20T22:57:33.769Z,20.80
2022-09-20T23:00:00.950Z,20.80
2022-09-20T23:02:28.097Z,20.80
2022-09-20T23:04:55.293Z,20.80
2022-09-20T23:07:22.362Z,20.70
2022-09-20T23:09:49.652Z,20.80
2022-09-20T23:12:16.846Z,20.80
2022-09-20T23:14:44.170Z,20.80
2022-09-20T23:17:11.277Z,20.70
2022-09-20T23:19:38.346Z,20.70
2022-09-20T23:22:05.495Z,20.70
2022-09-20T23:24:32.571Z,20.70
2022-09-20T23:26:59.719Z,20.70
2022-09-20T23:29:27.715Z,20.70
2022-09-20T23:31:54.894Z,20.70
2022-09-20T23:34:22.014Z,20.70
2022-09-20T23:36:49.144Z,20.70
2022-09-20T23:39:16.280Z,20.70
2022-09-20T23:41:47.151Z,20.70
2022-09-20T23:44:17.215Z,20.60
2022-09-20T23:46:44.652Z,20.60
2022-09-20T23:49:11.813Z,20.60
2022-09-20T23:51:39.013Z,20.60
2022-09-20T23:54:06.133Z,20.60
2022-09-20T23:56:33.417Z,20.60
2022-09-20T23:59:00.608Z,20.60
